Airfield :
LOGIN :

Register | Disclaimer

   EN    FR    IT 

 










Legend :    VFR   Marginal VFR   IFR   Intensive IFR   Very Intensive IFR
Visi :
Ceiling :
>= 8 km
>= 3000ft
5 to 8 km
1000 to 3000 ft
1500m to 5 km
500 to 1000 ft
800 to 1500m
200 to 500 ft
< 800m
< 200 ft
Symbols :   Thunderstorms  Fog  Heavy snow  Heavy precipitations  Wind > 20 kt
SIGMETs :     Misc.  Thunderstorms  Icing  Turbulence  Mountain Waves  Volcanic Ashes






- Airport Elevation : 122 ft
- IATA code : TXL


EDDT - Berlin Tegel Int.

CURRENT METAR :
  • 201350Z 31003KT 280V340 7000 BKN004 05/05 Q1017 TEMPO BKN005

EXPIRED METARs :
  • 201320Z 35003KT 270V070 8000 BKN004 05/05 Q1017 TEMPO BKN005
  • 201250Z 34004KT 290V020 8000 BKN004 BKN006 06/04 Q1017 TEMPO BKN005
  • 201220Z VRB02KT 8000 BKN004 BKN006 05/05 Q1018 TEMPO BKN005
  • 201150Z 29003KT 250V320 8000 -DZ BKN004 05/05 Q1018 TEMPO BKN005
  • 201120Z 29003KT 260V320 8000 BKN004 05/05 Q1018 TEMPO BKN005

TAF TAF EDDT
Valid from the 20 at 12:00 until the 21 at 12:00 UTC


201100Z 2012/2112 32003KT 8000 BKN005
TEMPO 2012/2018 2500 -DZ BKN004
BECMG 2018/2020 03005KT 3000 BR BKN003
TEMPO 2020/2109 2000 -DZ



MET'MAP, your aeronautical weather chart ! - Copyright ORBIFLY December 2007 - Disclaimer

ORBIFLY MET'MAP TEAM :

Programming & Development : Alexandra Zaïnal
Concept & Development : Baudouin d'Aumeries
Co-Development & Prog : Marc-Olivier Méhu
Technical & hardware support : Manuel Goepfert

Contact : metmap@orbifly.com




SOURCES & CREDITS :

   NOAA